Time;durP1;ratioP1;P1;durP2;ratioP2;P2;SDS_P1;SDS_P2;PMS_P1;PMS_P2;Temp;Humidity;BMP_temperature;BMP_pressure;BME280_temperature;BME280_humidity;BME280_pressure;Samples;Min_cycle;Max_cycle;Signal;HPM_P1;HPM_P2
2022/11/26 00:02:16;;;;;;;13.37;11.87;;;;;;;7.04;100.00;101019.63;5009849;28;20570;-83
2022/11/26 00:04:42;;;;;;;16.20;12.27;;;;;;;7.17;100.00;101030.91;5012060;28;20222;-83
2022/11/26 00:07:11;;;;;;;14.10;12.80;;;;;;;7.31;100.00;101031.88;5011858;28;20199;-83
2022/11/26 00:09:37;;;;;;;15.40;12.93;;;;;;;7.42;100.00;101049.22;5012327;28;20577;-84
2022/11/26 00:12:15;;;;;;;23.33;15.27;;;;;;;7.36;100.00;101068.22;5008755;28;20713;-85
2022/11/26 00:14:41;;;;;;;24.87;15.13;;;;;;;7.46;100.00;101043.16;5011939;28;20226;-84
2022/11/26 00:17:09;;;;;;;26.27;14.80;;;;;;;7.52;100.00;101032.78;5011254;28;20202;-83
2022/11/26 00:19:35;;;;;;;20.87;13.93;;;;;;;7.55;100.00;101032.78;5012001;28;20946;-85
2022/11/26 00:22:02;;;;;;;16.97;14.33;;;;;;;7.65;100.00;101031.97;5011001;28;20252;-83
2022/11/26 00:24:29;;;;;;;15.90;12.33;;;;;;;7.50;100.00;101053.56;5011650;28;20234;-84
2022/11/26 00:26:57;;;;;;;19.90;12.93;;;;;;;7.55;100.00;101057.06;5011337;28;20217;-84
2022/11/26 00:29:25;;;;;;;20.07;12.67;;;;;;;7.54;100.00;101067.44;5005546;28;20206;-84
2022/11/26 00:31:51;;;;;;;19.03;13.13;;;;;;;7.48;100.00;101081.25;5011560;28;20206;-83
2022/11/26 00:34:18;;;;;;;15.23;12.63;;;;;;;7.51;100.00;101086.47;5011996;28;20230;-83
2022/11/26 00:36:44;;;;;;;14.03;12.33;;;;;;;7.53;100.00;101082.16;5009448;28;20227;-83
2022/11/26 00:39:15;;;;;;;12.70;11.37;;;;;;;7.48;100.00;101093.38;5051131;22;20240;-80
2022/11/26 00:41:42;;;;;;;18.40;13.50;;;;;;;7.25;100.00;101116.63;5051531;28;20913;-80
2022/11/26 00:44:16;;;;;;;20.27;14.67;;;;;;;7.39;100.00;101117.56;5052540;28;20209;-81
2022/11/26 00:46:44;;;;;;;14.33;11.83;;;;;;;7.27;100.00;101125.31;5052667;28;20209;-80
2022/11/26 00:49:10;;;;;;;13.97;11.37;;;;;;;7.20;100.00;101141.72;5043826;28;20284;-81
2022/11/26 00:51:37;;;;;;;12.70;11.37;;;;;;;7.24;100.00;101149.53;5032633;28;20205;-80
2022/11/26 00:54:05;;;;;;;16.63;11.47;;;;;;;7.28;100.00;101156.47;5032603;28;20694;-81
2022/11/26 00:56:32;;;;;;;12.67;11.20;;;;;;;7.24;100.00;101195.41;5032971;28;20210;-80
2022/11/26 00:58:58;;;;;;;26.63;12.37;;;;;;;7.19;100.00;101199.69;5033279;28;20240;-80
2022/11/26 01:01:27;;;;;;;14.30;10.33;;;;;;;7.24;100.00;101195.41;5032687;28;20226;-80
2022/11/26 01:03:57;;;;;;;11.70;10.50;;;;;;;7.25;100.00;101210.13;5033892;28;20684;-81
2022/11/26 01:06:28;;;;;;;10.90;9.60;;;;;;;7.21;100.00;101205.75;5033748;28;20228;-80
2022/11/26 01:08:54;;;;;;;12.07;10.40;;;;;;;7.05;99.41;101229.00;5033108;28;20237;-80
2022/11/26 01:11:23;;;;;;;18.93;12.00;;;;;;;7.04;100.00;101242.84;5032913;28;20224;-80
2022/11/26 01:13:52;;;;;;;14.03;11.23;;;;;;;7.13;100.00;101206.56;5034903;28;20297;-80
2022/11/26 01:16:21;;;;;;;15.67;9.70;;;;;;;7.11;100.00;101223.00;5037646;28;20210;-80
2022/11/26 01:18:50;;;;;;;16.20;8.93;;;;;;;7.12;100.00;101198.78;5036846;28;20237;-80
2022/11/26 01:21:19;;;;;;;11.23;8.90;;;;;;;7.05;100.00;101204.78;5037058;28;20218;-80
2022/11/26 01:23:46;;;;;;;9.60;8.63;;;;;;;7.09;100.00;101211.72;5037317;28;20217;-81
2022/11/26 01:26:16;;;;;;;13.47;9.60;;;;;;;7.11;100.00;101217.81;5037412;28;20217;-80
2022/11/26 01:28:43;;;;;;;18.23;10.63;;;;;;;6.87;100.00;101201.16;5037512;28;20279;-81
2022/11/26 01:31:15;;;;;;;15.83;10.33;;;;;;;6.82;100.00;101189.00;5037259;28;20574;-81
2022/11/26 01:33:41;;;;;;;11.50;9.10;;;;;;;6.82;100.00;101184.72;5036959;28;20205;-80
2022/11/26 01:36:25;;;;;;;21.77;10.57;;;;;;;6.86;100.00;101175.22;5037522;28;20687;-80
2022/11/26 01:38:52;;;;;;;12.93;8.63;;;;;;;6.90;100.00;101179.59;5036934;28;20252;-80
2022/11/26 01:41:31;;;;;;;19.20;12.37;;;;;;;6.83;100.00;101182.97;5036852;28;20209;-80
2022/11/26 01:43:59;;;;;;;10.57;9.37;;;;;;;6.87;100.00;101176.94;5037715;28;20216;-81
2022/11/26 01:46:29;;;;;;;11.00;9.30;;;;;;;6.99;100.00;101168.41;5037175;28;20202;-81
2022/11/26 01:49:14;;;;;;;11.60;8.60;;;;;;;7.00;100.00;101186.59;5037475;28;20234;-80
2022/11/26 01:51:43;;;;;;;14.53;10.10;;;;;;;6.98;100.00;101196.09;5036926;28;20202;-80
2022/11/26 01:54:10;;;;;;;14.60;10.07;;;;;;;7.02;100.00;101199.56;5037805;28;20203;-81
2022/11/26 01:56:38;;;;;;;19.03;11.17;;;;;;;6.92;100.00;101211.59;5037628;28;20213;-80
2022/11/26 01:59:11;;;;;;;20.00;10.63;;;;;;;6.91;100.00;101209.84;5037602;28;20226;-80
2022/11/26 02:01:38;;;;;;;11.50;8.70;;;;;;;6.92;100.00;101224.59;5037164;28;20647;-81
2022/11/26 02:04:12;;;;;;;15.00;9.40;;;;;;;6.74;100.00;101241.72;5036987;28;20599;-81
2022/11/26 02:06:40;;;;;;;10.50;9.43;;;;;;;6.78;100.00;101226.16;5036925;28;20312;-80
2022/11/26 02:09:10;;;;;;;17.97;11.20;;;;;;;6.71;100.00;101235.63;5037112;28;20229;-80
2022/11/26 02:11:37;;;;;;;20.37;11.53;;;;;;;6.72;100.00;101221.81;5036504;28;20206;-80
2022/11/26 02:14:07;;;;;;;12.30;8.10;;;;;;;6.80;100.00;101225.34;5036919;28;20209;-80
2022/11/26 02:16:51;;;;;;;16.00;9.33;;;;;;;6.80;100.00;101242.63;5037027;28;20221;-80
2022/11/26 02:19:43;;;;;;;10.00;8.93;;;;;;;6.88;100.00;101256.56;5036707;28;20693;-81
2022/11/26 02:22:25;;;;;;;21.10;11.43;;;;;;;6.80;100.00;101243.50;5037159;28;20230;-80
2022/11/26 02:25:05;;;;;;;17.97;11.00;;;;;;;6.82;100.00;101239.19;5035904;28;20209;-80
2022/11/26 02:28:02;;;;;;;14.60;9.23;;;;;;;6.97;100.00;101236.72;5037851;28;20263;-80
2022/11/26 02:30:32;;;;;;;23.87;10.07;;;;;;;6.88;100.00;101267.81;5037998;28;20222;-81
2022/11/26 02:33:02;;;;;;;22.33;11.70;;;;;;;6.76;100.00;101254.72;5037848;28;20206;-81
2022/11/26 02:35:34;;;;;;;17.57;9.50;;;;;;;6.76;100.00;101252.13;5038199;28;20754;-80
2022/11/26 02:38:05;;;;;;;15.33;9.23;;;;;;;6.78;100.00;101265.97;5038062;28;20201;-81
2022/11/26 02:40:31;;;;;;;10.60;9.33;;;;;;;6.79;100.00;101282.41;5037402;28;20233;-81
2022/11/26 02:42:57;;;;;;;12.63;9.20;;;;;;;6.68;100.00;101272.78;5038021;28;20241;-81
2022/11/26 02:45:27;;;;;;;17.50;10.80;;;;;;;6.59;100.00;101275.28;5038109;28;20217;-80
2022/11/26 02:47:58;;;;;;;28.60;12.33;;;;;;;6.36;100.00;101260.34;5038041;28;20210;-81
2022/11/26 02:50:27;;;;;;;23.93;11.43;;;;;;;6.48;100.00;101237.97;5037581;28;20229;-80
2022/11/26 02:52:57;;;;;;;12.67;9.73;;;;;;;6.47;100.00;101250.06;5038338;28;20210;-81
2022/11/26 02:55:26;;;;;;;12.57;10.63;;;;;;;6.46;100.00;101256.13;5038672;28;20206;-81
2022/11/26 02:57:54;;;;;;;14.67;9.33;;;;;;;6.44;100.00;101260.44;5037622;28;20743;-81
2022/11/26 03:00:21;;;;;;;13.47;9.83;;;;;;;6.43;100.00;101287.19;5036886;28;20234;-80
2022/11/26 03:02:51;;;;;;;12.33;9.03;;;;;;;6.34;100.00;101310.41;5038049;28;20236;-81
2022/11/26 03:05:19;;;;;;;15.67;9.63;;;;;;;6.39;100.00;101290.63;5037768;28;20212;-81
2022/11/26 03:07:48;;;;;;;15.53;10.03;;;;;;;6.38;100.00;101277.63;5037590;28;20692;-80
2022/11/26 03:10:15;;;;;;;21.67;10.63;;;;;;;6.39;100.00;101271.59;5037359;28;20266;-81
2022/11/26 03:12:42;;;;;;;16.93;10.47;;;;;;;6.30;100.00;101281.03;5037603;28;20235;-81
2022/11/26 03:15:09;;;;;;;16.07;9.60;;;;;;;6.39;100.00;101275.06;5037667;28;20205;-81
2022/11/26 03:17:35;;;;;;;15.50;10.70;;;;;;;6.36;100.00;101267.22;5037513;28;20220;-80
2022/11/26 03:20:03;;;;;;;15.10;8.83;;;;;;;6.39;100.00;101280.25;5036980;28;20581;-81
2022/11/26 03:22:31;;;;;;;12.87;8.97;;;;;;;6.34;100.00;101298.34;5034925;28;20232;-80
2022/11/26 03:24:57;;;;;;;14.70;10.27;;;;;;;6.30;100.00;101317.31;5034807;28;20209;-81
2022/11/26 03:27:24;;;;;;;13.83;9.57;;;;;;;6.29;100.00;101320.75;5035003;28;20703;-81
2022/11/26 03:29:50;;;;;;;13.20;9.17;;;;;;;6.35;100.00;101333.78;5035412;28;20226;-79
2022/11/26 03:32:16;;;;;;;17.33;10.17;;;;;;;6.13;100.00;101330.03;5035503;28;20226;-80
2022/11/26 03:34:43;;;;;;;15.53;10.10;;;;;;;6.19;100.00;101311.09;5034926;28;20587;-80
2022/11/26 03:37:09;;;;;;;11.83;9.37;;;;;;;6.21;100.00;101313.72;5035003;28;20746;-80
2022/11/26 03:39:37;;;;;;;16.47;8.60;;;;;;;6.18;100.00;101339.59;5034898;28;20233;-80
2022/11/26 03:42:04;;;;;;;8.20;7.33;;;;;;;6.19;99.84;101365.56;5034686;28;20799;-80
2022/11/26 03:44:30;;;;;;;11.27;7.33;;;;;;;6.19;99.19;101388.88;5035358;28;20206;-81
2022/11/26 03:46:56;;;;;;;11.57;8.30;;;;;;;6.18;98.44;101409.59;5035240;28;20257;-80
2022/11/26 03:49:23;;;;;;;9.50;7.80;;;;;;;6.19;97.92;101429.50;5034805;28;20228;-80
2022/11/26 03:51:49;;;;;;;10.63;7.53;;;;;;;6.18;97.23;101441.56;5034660;28;20210;-81
2022/11/26 03:54:16;;;;;;;11.43;7.87;;;;;;;6.16;96.95;101458.81;5035004;28;20206;-81
2022/11/26 03:56:44;;;;;;;7.37;6.67;;;;;;;6.11;95.72;101476.91;5034979;28;20699;-80
2022/11/26 03:59:10;;;;;;;7.20;6.50;;;;;;;6.08;95.13;101497.56;5034774;28;20725;-81
2022/11/26 04:01:36;;;;;;;7.83;6.90;;;;;;;6.04;95.50;101500.09;5034290;28;20579;-80
2022/11/26 04:04:04;;;;;;;11.80;8.27;;;;;;;6.03;95.87;101509.59;5034787;28;20222;-80
2022/11/26 04:06:30;;;;;;;8.97;7.00;;;;;;;6.00;95.98;101498.31;5035211;28;20205;-81
2022/11/26 04:08:57;;;;;;;8.13;6.50;;;;;;;5.93;95.84;101508.53;5035060;28;20724;-81
2022/11/26 04:11:23;;;;;;;8.50;7.60;;;;;;;5.94;95.93;101512.84;5035114;28;20218;-80
2022/11/26 04:13:51;;;;;;;10.77;6.93;;;;;;;5.95;95.92;101522.41;5036374;28;20206;-80
2022/11/26 04:16:19;;;;;;;16.33;8.27;;;;;;;5.94;96.03;101499.91;5043987;28;20301;-80
2022/11/26 04:18:45;;;;;;;8.37;6.80;;;;;;;5.94;95.52;101506.81;5045601;28;20229;-80
2022/11/26 04:21:12;;;;;;;11.73;8.67;;;;;;;5.87;96.86;101473.88;5045593;28;20217;-80
2022/11/26 04:23:38;;;;;;;10.30;7.23;;;;;;;5.81;96.68;101472.06;5045252;28;20226;-80
2022/11/26 04:26:06;;;;;;;9.90;7.33;;;;;;;5.73;98.06;101450.31;5044276;28;20645;-80
2022/11/26 04:28:32;;;;;;;12.63;7.40;;;;;;;5.62;98.06;101444.94;5044496;28;20229;-80
2022/11/26 04:31:00;;;;;;;14.00;8.03;;;;;;;5.62;97.48;101454.44;5043831;28;20202;-80
2022/11/26 04:33:26;;;;;;;8.47;7.63;;;;;;;5.69;96.81;101457.16;5035015;28;20202;-80
2022/11/26 04:35:53;;;;;;;12.33;8.57;;;;;;;5.70;96.39;101468.38;5032313;28;20695;-80
2022/11/26 04:38:20;;;;;;;9.60;8.33;;;;;;;5.70;96.70;101474.44;5032110;28;20210;-80
2022/11/26 04:40:47;;;;;;;14.07;9.00;;;;;;;5.70;95.94;101481.34;5032382;28;20594;-80
2022/11/26 04:43:13;;;;;;;11.80;9.07;;;;;;;5.67;95.36;101494.22;5032358;28;20233;-80
2022/11/26 04:45:40;;;;;;;13.10;8.80;;;;;;;5.69;95.90;101502.91;5032478;28;20209;-80
2022/11/26 04:48:08;;;;;;;12.10;8.73;;;;;;;5.68;95.19;101504.63;5033505;28;20216;-80
2022/11/26 04:50:34;;;;;;;10.60;8.80;;;;;;;5.66;96.53;101503.72;5036207;28;20583;-80
2022/11/26 04:53:01;;;;;;;13.57;8.47;;;;;;;5.74;97.24;101476.22;5036301;28;20212;-80
2022/11/26 04:55:27;;;;;;;15.70;9.10;;;;;;;5.69;96.75;101477.88;5036830;28;20213;-80
2022/11/26 04:57:53;;;;;;;15.20;9.80;;;;;;;5.67;96.88;101483.88;5036756;28;20236;-80
2022/11/26 05:00:21;;;;;;;17.10;10.63;;;;;;;5.62;98.38;101480.34;5036361;28;20716;-80
2022/11/26 05:02:47;;;;;;;14.60;10.20;;;;;;;5.60;97.69;101464.75;5036239;28;20738;-80
2022/11/26 05:05:15;;;;;;;11.57;8.30;;;;;;;5.64;96.92;101463.97;5036390;28;20209;-80
2022/11/26 05:07:41;;;;;;;10.73;8.43;;;;;;;5.58;96.67;101469.91;5036747;28;20213;-80
2022/11/26 05:10:09;;;;;;;9.87;8.53;;;;;;;5.64;96.46;101483.81;5036275;28;20226;-80
2022/11/26 05:12:36;;;;;;;11.07;8.87;;;;;;;5.55;96.04;101493.19;5036286;28;20212;-80
2022/11/26 05:15:03;;;;;;;14.33;8.90;;;;;;;5.54;97.08;101496.59;5036635;28;20212;-80
2022/11/26 05:17:30;;;;;;;12.53;9.63;;;;;;;5.53;96.90;101493.97;5036779;28;20687;-80
2022/11/26 05:19:56;;;;;;;13.07;8.50;;;;;;;5.46;98.30;101479.19;5036471;28;20236;-80
2022/11/26 05:22:24;;;;;;;9.23;8.20;;;;;;;5.46;98.18;101464.50;5036967;28;20207;-79
2022/11/26 05:24:51;;;;;;;11.30;7.97;;;;;;;5.50;97.27;101470.63;5036396;28;20212;-80
2022/11/26 05:27:17;;;;;;;11.00;8.17;;;;;;;5.49;96.41;101485.31;5036483;28;20579;-80
2022/11/26 05:29:44;;;;;;;12.47;8.00;;;;;;;5.50;97.37;101499.09;5036396;28;20233;-79
2022/11/26 05:32:10;;;;;;;13.30;8.37;;;;;;;5.51;96.79;101504.31;5036244;28;20678;-80
2022/11/26 05:34:36;;;;;;;8.50;6.97;;;;;;;5.44;96.56;101524.88;5036323;28;20206;-80
2022/11/26 05:37:03;;;;;;;9.50;8.40;;;;;;;5.37;96.34;101534.22;5036508;28;20208;-80
2022/11/26 05:39:31;;;;;;;17.93;8.70;;;;;;;5.44;97.90;101515.41;5035975;28;20238;-80
2022/11/26 05:41:57;;;;;;;14.83;9.37;;;;;;;5.48;99.66;101485.25;5036495;28;20666;-80
2022/11/26 05:44:23;;;;;;;9.03;7.83;;;;;;;5.49;100.00;101441.28;5036370;28;20231;-80
2022/11/26 05:46:50;;;;;;;18.23;9.80;;;;;;;5.48;100.00;101431.75;5036085;28;20208;-80
2022/11/26 05:49:16;;;;;;;13.63;9.70;;;;;;;5.55;100.00;101418.06;5036498;28;20222;-80
2022/11/26 05:51:43;;;;;;;15.80;9.53;;;;;;;5.57;100.00;101418.97;5036087;28;20204;-80
2022/11/26 05:54:12;;;;;;;13.73;8.77;;;;;;;5.58;100.00;101435.38;5036536;28;20213;-80
2022/11/26 05:56:40;;;;;;;12.43;8.07;;;;;;;5.53;99.31;101457.72;5036080;28;20223;-79
2022/11/26 05:59:06;;;;;;;10.63;7.50;;;;;;;5.53;98.35;101481.03;5036573;28;20231;-80
2022/11/26 06:01:33;;;;;;;11.87;8.20;;;;;;;5.55;97.43;101494.91;5036638;28;20244;-80
2022/11/26 06:03:59;;;;;;;9.33;6.40;;;;;;;5.47;97.03;101519.75;5037639;28;20228;-80
2022/11/26 06:06:26;;;;;;;11.33;7.97;;;;;;;5.42;97.35;101532.63;5037340;28;20235;-79
2022/11/26 06:08:52;;;;;;;13.77;7.23;;;;;;;5.42;97.22;101548.16;5036952;28;20230;-80
2022/11/26 06:11:19;;;;;;;7.70;6.90;;;;;;;5.44;97.33;101541.28;5036320;28;20234;-80
2022/11/26 06:13:46;;;;;;;12.83;7.50;;;;;;;5.44;96.96;101551.66;5036952;28;20203;-80
2022/11/26 06:16:13;;;;;;;10.47;7.73;;;;;;;5.41;96.80;101559.38;5037027;28;20208;-80
2022/11/26 06:18:40;;;;;;;12.43;7.63;;;;;;;5.38;98.52;101538.59;5037187;28;20744;-80
2022/11/26 06:21:07;;;;;;;9.50;7.30;;;;;;;5.42;98.54;101526.56;5036422;28;20626;-80
2022/11/26 06:23:34;;;;;;;11.73;7.50;;;;;;;5.35;99.19;101508.34;5036905;28;20236;-80
2022/11/26 06:26:01;;;;;;;11.07;7.70;;;;;;;5.38;98.63;101507.50;5037163;28;20231;-81
2022/11/26 06:28:27;;;;;;;10.07;7.60;;;;;;;5.41;98.68;101519.63;5036767;28;20731;-80
2022/11/26 06:30:55;;;;;;;11.73;7.70;;;;;;;5.38;98.04;101536.00;5036607;28;20207;-81
2022/11/26 06:33:21;;;;;;;8.57;7.13;;;;;;;5.38;96.82;101549.81;5036617;28;20205;-81
2022/11/26 06:35:48;;;;;;;8.80;6.80;;;;;;;5.33;96.98;101576.44;5037075;28;20207;-79
2022/11/26 06:38:14;;;;;;;19.00;9.07;;;;;;;5.31;96.52;101588.47;5035894;28;20224;-79
2022/11/26 06:40:41;;;;;;;15.50;7.97;;;;;;;5.32;97.30;101590.25;5116152;22;20239;-79
2022/11/26 06:43:07;;;;;;;10.30;7.23;;;;;;;5.34;96.62;101597.19;5016549;28;20231;-79
2022/11/26 06:45:34;;;;;;;10.80;6.53;;;;;;;5.31;95.98;101602.31;5016618;28;20220;-80
2022/11/26 06:48:02;;;;;;;13.87;7.50;;;;;;;5.28;96.65;101610.00;5017077;28;20207;-79
2022/11/26 06:50:28;;;;;;;7.43;6.73;;;;;;;5.25;96.01;101615.13;5016683;28;20227;-80
2022/11/26 06:52:55;;;;;;;14.20;7.90;;;;;;;5.23;96.55;101624.53;5016822;28;20214;-79
2022/11/26 06:55:22;;;;;;;9.63;7.67;;;;;;;5.28;96.42;101619.50;5016227;28;20207;-79
2022/11/26 06:57:50;;;;;;;7.77;6.50;;;;;;;5.21;95.89;101636.59;5016613;28;20514;-78
2022/11/26 07:00:16;;;;;;;8.50;6.97;;;;;;;5.18;95.35;101650.34;5016295;28;20250;-79
2022/11/26 07:02:43;;;;;;;8.37;7.43;;;;;;;5.16;95.75;101649.44;5015817;28;20216;-78
2022/11/26 07:05:10;;;;;;;10.13;6.80;;;;;;;5.19;95.35;101651.19;5015058;28;20254;-78
2022/11/26 07:07:37;;;;;;;7.77;6.93;;;;;;;5.18;95.55;101652.94;5014474;28;20595;-78
2022/11/26 07:10:05;;;;;;;10.60;8.03;;;;;;;5.17;96.21;101653.78;5014394;28;20323;-78
2022/11/26 07:12:31;;;;;;;12.37;7.03;;;;;;;5.20;95.37;101660.72;5013946;28;20636;-78
2022/11/26 07:14:58;;;;;;;9.97;7.73;;;;;;;5.18;95.83;101657.25;5015058;28;20209;-78
2022/11/26 07:17:24;;;;;;;7.50;6.80;;;;;;;5.20;95.33;101659.88;5014684;28;20225;-78
2022/11/26 07:19:50;;;;;;;10.67;7.73;;;;;;;5.22;95.08;101672.00;5014390;28;20254;-77
2022/11/26 07:22:18;;;;;;;9.43;8.13;;;;;;;5.26;95.25;101667.78;5014817;28;20205;-79
2022/11/26 07:24:45;;;;;;;17.77;8.13;;;;;;;5.23;96.18;101665.97;5014755;28;20238;-78
2022/11/26 07:27:11;;;;;;;11.27;7.47;;;;;;;5.20;96.64;101658.16;5014479;28;20737;-78
2022/11/26 07:29:37;;;;;;;11.03;7.83;;;;;;;5.22;96.30;101648.69;5015039;28;20230;-79
2022/11/26 07:32:04;;;;;;;9.97;8.57;;;;;;;5.28;96.90;101635.88;5014360;28;20217;-78
2022/11/26 07:34:31;;;;;;;11.57;8.07;;;;;;;5.25;96.73;101634.94;5014683;28;20202;-78
2022/11/26 07:36:57;;;;;;;12.73;7.87;;;;;;;5.25;97.23;101634.94;5014653;28;20210;-79
2022/11/26 07:39:25;;;;;;;9.17;7.67;;;;;;;5.29;96.57;101637.66;5014570;28;21233;-78
2022/11/26 07:41:51;;;;;;;15.83;10.20;;;;;;;5.28;97.01;101635.88;5014194;28;20302;-78
2022/11/26 07:44:18;;;;;;;10.37;8.20;;;;;;;5.35;97.42;101626.53;5015180;28;20714;-77
2022/11/26 07:46:44;;;;;;;17.00;9.03;;;;;;;5.38;96.92;101630.06;5015774;28;20251;-78
2022/11/26 07:49:11;;;;;;;12.80;8.80;;;;;;;5.40;97.14;101627.53;5015217;28;20232;-78
2022/11/26 07:51:38;;;;;;;11.20;8.20;;;;;;;5.45;97.69;101615.56;5014548;28;20212;-78
2022/11/26 07:54:07;;;;;;;15.00;8.77;;;;;;;5.45;99.61;101587.06;5014781;28;20208;-77
2022/11/26 07:56:36;;;;;;;14.33;9.47;;;;;;;5.50;99.32;101577.66;5014929;28;20207;-78
2022/11/26 07:59:02;;;;;;;17.67;9.70;;;;;;;5.53;100.00;101566.47;5014987;28;20211;-79
2022/11/26 08:01:29;;;;;;;17.90;8.93;;;;;;;5.54;100.00;101532.00;5015212;28;20216;-78
2022/11/26 08:03:57;;;;;;;20.87;11.10;;;;;;;5.63;100.00;101489.84;5015368;28;20243;-79
2022/11/26 08:06:26;;;;;;;13.50;9.50;;;;;;;5.58;100.00;101484.59;5014666;28;20267;-78
2022/11/26 08:08:53;;;;;;;15.40;10.00;;;;;;;5.61;100.00;101495.00;5014838;28;20208;-78
2022/11/26 08:11:21;;;;;;;15.80;9.93;;;;;;;5.65;100.00;101501.09;5014449;28;20212;-78
2022/11/26 08:13:53;;;;;;;17.13;9.70;;;;;;;5.67;100.00;101510.66;5014835;28;20209;-78
2022/11/26 08:16:19;;;;;;;14.43;9.53;;;;;;;5.65;100.00;101507.19;5015188;28;20210;-78
2022/11/26 08:18:45;;;;;;;19.83;10.67;;;;;;;5.64;100.00;101499.38;5014388;28;20218;-79
2022/11/26 08:21:12;;;;;;;23.60;10.60;;;;;;;5.65;100.00;101491.63;5014494;28;20578;-78
2022/11/26 08:23:38;;;;;;;23.53;11.63;;;;;;;5.74;100.00;101494.38;5013884;28;20234;-78
2022/11/26 08:26:06;;;;;;;31.20;11.40;;;;;;;5.84;100.00;101491.94;5015016;28;20644;-78
2022/11/26 08:28:33;;;;;;;19.93;10.50;;;;;;;5.88;100.00;101481.66;5015384;28;20215;-78
2022/11/26 08:31:05;;;;;;;26.13;12.73;;;;;;;5.93;100.00;101487.81;5014700;28;20228;-78
2022/11/26 08:33:32;;;;;;;19.27;11.03;;;;;;;5.95;100.00;101488.72;5014852;28;20208;-78
2022/11/26 08:35:58;;;;;;;15.50;9.67;;;;;;;5.99;100.00;101494.84;5014667;28;20210;-78
2022/11/26 08:38:26;;;;;;;27.53;11.30;;;;;;;6.07;100.00;101501.03;5015173;28;20695;-78
2022/11/26 08:40:53;;;;;;;12.30;8.60;;;;;;;6.05;100.00;101514.81;5014353;28;20239;-78
2022/11/26 08:43:20;;;;;;;12.37;9.83;;;;;;;6.07;100.00;101519.16;5013268;28;20272;-78
2022/11/26 08:45:52;;;;;;;17.87;11.07;;;;;;;6.14;100.00;101527.91;5012657;28;20221;-78
2022/11/26 08:48:20;;;;;;;28.87;12.57;;;;;;;6.23;100.00;101532.41;5012625;28;20261;-77
2022/11/26 08:50:46;;;;;;;27.07;11.73;;;;;;;6.33;100.00;101544.66;5012674;28;20226;-78
2022/11/26 08:53:13;;;;;;;24.93;13.13;;;;;;;6.40;100.00;101548.22;5012567;28;20696;-78
2022/11/26 08:55:39;;;;;;;17.33;11.80;;;;;;;6.43;100.00;101549.13;5012919;28;20202;-78
2022/11/26 08:58:06;;;;;;;21.50;12.77;;;;;;;6.51;100.00;101555.31;5011754;28;20624;-77
2022/11/26 09:00:32;;;;;;;23.07;13.47;;;;;;;6.53;100.00;101548.44;5011618;28;20222;-77
2022/11/26 09:02:59;;;;;;;29.40;12.53;;;;;;;6.55;100.00;101551.06;5011892;28;20204;-78
2022/11/26 09:05:27;;;;;;;22.87;13.37;;;;;;;6.60;100.00;101535.53;5011995;28;20219;-78
2022/11/26 09:07:54;;;;;;;22.67;14.13;;;;;;;6.69;100.00;101530.50;5010790;28;20206;-78
2022/11/26 09:10:20;;;;;;;26.47;13.67;;;;;;;6.71;100.00;101541.78;5011910;28;20223;-79
2022/11/26 09:12:47;;;;;;;26.43;12.37;;;;;;;6.83;100.00;101546.28;5012081;28;20214;-77
2022/11/26 09:15:13;;;;;;;30.07;13.97;;;;;;;6.82;100.00;101553.19;5011526;28;20580;-78
2022/11/26 09:17:40;;;;;;;22.77;13.00;;;;;;;6.93;100.00;101555.94;5012106;28;20220;-78
2022/11/26 09:20:07;;;;;;;23.17;12.70;;;;;;;6.97;100.00;101553.38;5011971;28;20364;-78
2022/11/26 09:22:35;;;;;;;25.10;12.87;;;;;;;7.00;100.00;101562.06;5012857;28;20218;-78
2022/11/26 09:25:02;;;;;;;20.83;12.23;;;;;;;6.99;100.00;101560.34;5011988;28;20231;-78
2022/11/26 09:27:28;;;;;;;27.67;13.37;;;;;;;7.05;100.00;101557.81;5012431;28;20203;-77
2022/11/26 09:29:55;;;;;;;28.73;14.77;;;;;;;7.07;100.00;101569.97;5011772;28;20230;-77
2022/11/26 09:32:21;;;;;;;29.13;15.00;;;;;;;7.15;100.00;101570.97;5011873;28;20225;-78
2022/11/26 09:34:48;;;;;;;21.27;13.77;;;;;;;7.07;100.00;101571.69;5013865;28;20214;-77
2022/11/26 09:37:14;;;;;;;26.07;13.40;;;;;;;7.19;100.00;101561.47;5015531;28;20214;-77
2022/11/26 09:39:42;;;;;;;29.67;15.33;;;;;;;7.44;100.00;101541.88;5015871;28;20242;-78
2022/11/26 09:42:19;;;;;;;39.70;18.43;;;;;;;7.49;100.00;101539.31;5015557;28;20594;-79
2022/11/26 09:45:05;;;;;;;29.60;15.50;;;;;;;7.55;100.00;101544.59;5015622;28;20273;-78
2022/11/26 09:47:37;;;;;;;30.63;15.77;;;;;;;7.53;100.00;101556.69;5015858;28;20206;-79
2022/11/26 09:50:16;;;;;;;26.67;14.07;;;;;;;7.52;100.00;101567.94;5014909;28;20218;-79
2022/11/26 09:52:47;;;;;;;34.33;15.10;;;;;;;7.86;100.00;101548.41;5015248;28;20212;-79
2022/11/26 09:55:19;;;;;;;28.23;13.50;;;;;;;7.95;100.00;101548.50;5015375;28;20202;-77
2022/11/26 09:57:51;;;;;;;29.20;13.20;;;;;;;7.95;100.00;101574.50;5012405;28;20207;-77
2022/11/26 10:00:25;;;;;;;22.33;13.37;;;;;;;7.99;100.00;101609.19;5013550;28;20229;-78
2022/11/26 10:02:53;;;;;;;27.17;13.47;;;;;;;8.01;100.00;101628.28;5012718;28;20198;-78
2022/11/26 10:05:20;;;;;;;28.27;13.90;;;;;;;8.07;100.00;101637.88;5015018;28;20640;-78
2022/11/26 10:07:59;;;;;;;22.87;13.77;;;;;;;8.23;100.00;101616.38;5013379;28;20578;-78
2022/11/26 10:10:29;;;;;;;25.97;13.57;;;;;;;8.13;100.00;101648.34;5012612;28;20218;-78
2022/11/26 10:13:03;;;;;;;22.83;13.77;;;;;;;8.03;100.00;101657.78;5014929;28;20210;-78
2022/11/26 10:15:37;;;;;;;26.33;12.43;;;;;;;8.13;100.00;101672.63;5012794;28;20568;-78
2022/11/26 10:18:14;;;;;;;27.33;15.17;;;;;;;8.09;100.00;101676.06;5014540;28;20441;-78
2022/11/26 10:21:09;;;;;;;25.70;14.77;;;;;;;8.21;100.00;101675.31;5013956;28;20218;-76
2022/11/26 10:23:44;;;;;;;28.77;14.13;;;;;;;8.13;100.00;101680.44;5012110;28;20228;-77
2022/11/26 10:26:16;;;;;;;29.57;14.37;;;;;;;8.36;100.00;101679.78;5012671;28;20195;-77
2022/11/26 10:28:45;;;;;;;25.87;15.00;;;;;;;8.37;100.00;101678.94;5013924;28;20877;-77
2022/11/26 10:31:18;;;;;;;32.17;18.55;;;;;;;8.56;100.00;101667.00;5012378;28;20446;-77
2022/11/26 10:33:52;;;;;;;28.00;15.60;;;;;;;8.58;100.00;101698.25;5011382;28;20206;-77
2022/11/26 10:36:24;;;;;;;27.47;16.50;;;;;;;8.43;98.43;101738.88;5013802;28;20210;-77
2022/11/26 10:38:51;;;;;;;24.00;15.27;;;;;;;8.47;98.75;101747.59;5013415;28;20213;-77
2022/11/26 10:41:20;;;;;;;30.77;14.40;;;;;;;8.40;98.39;101763.97;5013380;28;20597;-77
2022/11/26 10:43:47;;;;;;;22.77;14.43;;;;;;;8.44;98.77;101764.03;5011041;28;20662;-77
2022/11/26 10:46:31;;;;;;;27.13;15.07;;;;;;;8.59;99.62;101734.72;5012469;28;20247;-77
2022/11/26 10:49:16;;;;;;;30.20;14.90;;;;;;;8.63;98.71;101749.50;5012413;28;20677;-77
2022/11/26 10:51:47;;;;;;;31.03;15.10;;;;;;;8.66;98.28;101759.06;5013043;28;20198;-77
2022/11/26 10:54:23;;;;;;;22.77;14.87;;;;;;;8.63;98.01;101770.31;5013200;28;20205;-77
2022/11/26 10:56:52;;;;;;;31.10;15.33;;;;;;;8.64;97.22;101792.00;5011474;28;20210;-76
2022/11/26 10:59:23;;;;;;;28.63;17.33;;;;;;;8.59;97.74;101791.09;4320043;28;10021622;-77
2022/11/26 11:01:53;;;;;;;29.90;17.83;;;;;;;8.78;98.59;101777.44;5004963;28;20199;-77
2022/11/26 11:04:26;;;;;;;32.33;18.10;;;;;;;8.93;98.26;101777.56;5001078;28;20304;-77
2022/11/26 11:06:52;;;;;;;22.87;16.00;;;;;;;9.09;96.68;101799.41;5010595;28;20210;-77
2022/11/26 11:09:30;;;;;;;22.80;15.23;;;;;;;9.31;96.65;101813.50;5009677;28;21072;-77
2022/11/26 11:12:25;;;;;;;30.43;15.10;;;;;;;9.25;94.37;101851.66;5010544;28;20210;-77
2022/11/26 11:14:52;;;;;;;23.17;14.93;;;;;;;9.34;94.76;101851.75;4986667;28;20210;-77
2022/11/26 11:17:26;;;;;;;24.83;14.27;;;;;;;9.58;94.92;101848.47;5010971;28;20195;-77
2022/11/26 11:19:53;;;;;;;23.27;15.50;;;;;;;9.41;92.11;101907.41;5008943;28;20225;-77
2022/11/26 11:22:21;;;;;;;23.87;14.57;;;;;;;9.59;93.13;101917.97;5010371;28;20212;-77
2022/11/26 11:24:48;;;;;;;19.77;15.57;;;;;;;9.78;93.34;101915.56;5010174;28;20230;-76